AFL1638 UNNT-UNOO
Flight info
| Callsign | AFL1638 |
|---|---|
| Flight time | 0h 57m |
| Altitude | 36000 |
| Route | OGAMA A308 OSNAB G828 SZ B234 KOVEN |
| Aircraft | A320/M-SDE3FGHIRWY/LB1 |
Departure
| Time | 2026-04-28 06:51 |
|---|---|
| Airport | Novosibirsk Tolmachevo Airport (UNNT) |
Arrival
| Time | 2026-04-28 07:49 |
|---|---|
| Airport | Omsk Central Airport (UNOO) |
| Time | Latitude | Longitude | Altitude | Speed | Heading |
|---|---|---|---|---|---|
| 2026-04-28 06:48 | 55.01068 | 82.66329 | 373 ft | 0 kts | 171° |
| 2026-04-28 06:49 | 55.01059 | 82.66332 | 373 ft | 4 kts | 171° |
| 2026-04-28 06:49 | 55.01026 | 82.66361 | 373 ft | 7 kts | 118° |
| 2026-04-28 06:49 | 55.01041 | 82.66472 | 373 ft | 12 kts | 67° |
| 2026-04-28 06:50 | 55.01084 | 82.66631 | 373 ft | 16 kts | 51° |
| 2026-04-28 06:50 | 55.01204 | 82.66638 | 373 ft | 20 kts | 352° |
| 2026-04-28 06:50 | 55.01329 | 82.66603 | 374 ft | 16 kts | 351° |
| 2026-04-28 06:50 | 55.01375 | 82.66498 | 375 ft | 13 kts | 262° |
| 2026-04-28 06:51 | 55.01352 | 82.66254 | 372 ft | 43 kts | 261° |
| 2026-04-28 06:51 | 55.01265 | 82.65300 | 373 ft | 113 kts | 260° |
| 2026-04-28 06:51 | 55.01109 | 82.63629 | 412 ft | 160 kts | 261° |
| 2026-04-28 06:51 | 55.00916 | 82.61723 | 1158 ft | 158 kts | 263° |
| 2026-04-28 06:52 | 55.00726 | 82.59805 | 1872 ft | 169 kts | 263° |
| 2026-04-28 06:52 | 55.00517 | 82.57654 | 2332 ft | 191 kts | 263° |
| 2026-04-28 06:52 | 55.00359 | 82.55228 | 2778 ft | 215 kts | 277° |
| 2026-04-28 06:52 | 55.00973 | 82.52787 | 3258 ft | 234 kts | 317° |
| 2026-04-28 06:53 | 55.02443 | 82.51379 | 3903 ft | 250 kts | 342° |
| 2026-04-28 06:53 | 55.04134 | 82.50532 | 4874 ft | 255 kts | 346° |
| 2026-04-28 06:53 | 55.05867 | 82.49777 | 5863 ft | 258 kts | 346° |
| 2026-04-28 06:53 | 55.07515 | 82.48503 | 6825 ft | 264 kts | 322° |
| 2026-04-28 06:54 | 55.08636 | 82.45949 | 7732 ft | 270 kts | 299° |
| 2026-04-28 06:54 | 55.09495 | 82.43029 | 8712 ft | 271 kts | 300° |
| 2026-04-28 06:54 | 55.10361 | 82.40100 | 9682 ft | 273 kts | 301° |
| 2026-04-28 06:54 | 55.11238 | 82.37144 | 10612 ft | 276 kts | 301° |
| 2026-04-28 06:55 | 55.12158 | 82.34059 | 10994 ft | 298 kts | 301° |
| 2026-04-28 06:55 | 55.13143 | 82.30756 | 11499 ft | 312 kts | 301° |
| 2026-04-28 06:55 | 55.14147 | 82.27356 | 12263 ft | 317 kts | 302° |
| 2026-04-28 06:55 | 55.15156 | 82.23910 | 13082 ft | 320 kts | 302° |
| 2026-04-28 06:56 | 55.16174 | 82.20428 | 13907 ft | 323 kts | 302° |
| 2026-04-28 06:56 | 55.17204 | 82.16917 | 14668 ft | 326 kts | 303° |
| 2026-04-28 06:56 | 55.18243 | 82.13377 | 15356 ft | 329 kts | 303° |
| 2026-04-28 06:56 | 55.19290 | 82.09803 | 16068 ft | 331 kts | 303° |
| 2026-04-28 06:57 | 55.20343 | 82.06192 | 16759 ft | 334 kts | 303° |
| 2026-04-28 06:57 | 55.21404 | 82.02548 | 17466 ft | 337 kts | 303° |
| 2026-04-28 06:57 | 55.22477 | 81.98874 | 18159 ft | 340 kts | 303° |
| 2026-04-28 06:57 | 55.23571 | 81.95115 | 18838 ft | 343 kts | 303° |
| 2026-04-28 06:58 | 55.24657 | 81.91372 | 19439 ft | 346 kts | 304° |
| 2026-04-28 06:58 | 55.25746 | 81.87606 | 20068 ft | 347 kts | 304° |
| 2026-04-28 06:58 | 55.26837 | 81.83828 | 20700 ft | 348 kts | 304° |
| 2026-04-28 06:58 | 55.27932 | 81.80030 | 21326 ft | 349 kts | 304° |
| 2026-04-28 06:59 | 55.28660 | 81.77505 | 21724 ft | 350 kts | 304° |
| 2026-04-28 06:59 | 55.29762 | 81.73685 | 22339 ft | 351 kts | 304° |
| 2026-04-28 06:59 | 55.30866 | 81.69848 | 22924 ft | 353 kts | 304° |
| 2026-04-28 06:59 | 55.31973 | 81.65993 | 23520 ft | 354 kts | 304° |
| 2026-04-28 07:00 | 55.33082 | 81.62130 | 24071 ft | 356 kts | 304° |
| 2026-04-28 07:00 | 55.34201 | 81.58233 | 24548 ft | 357 kts | 304° |
| 2026-04-28 07:00 | 55.35317 | 81.54332 | 24989 ft | 359 kts | 304° |
| 2026-04-28 07:00 | 55.36442 | 81.50395 | 25441 ft | 360 kts | 303° |
| 2026-04-28 07:01 | 55.37568 | 81.46458 | 25876 ft | 362 kts | 303° |
| 2026-04-28 07:01 | 55.38716 | 81.42427 | 26332 ft | 364 kts | 303° |
| 2026-04-28 07:01 | 55.39847 | 81.38444 | 26755 ft | 366 kts | 303° |
| 2026-04-28 07:01 | 55.40984 | 81.34420 | 27177 ft | 367 kts | 303° |
| 2026-04-28 07:02 | 55.42118 | 81.30390 | 27599 ft | 369 kts | 303° |
| 2026-04-28 07:02 | 55.43260 | 81.26329 | 28010 ft | 371 kts | 303° |
| 2026-04-28 07:02 | 55.44407 | 81.22249 | 28425 ft | 373 kts | 303° |
| 2026-04-28 07:02 | 55.45561 | 81.18150 | 28837 ft | 374 kts | 303° |
| 2026-04-28 07:03 | 55.46681 | 81.13993 | 29241 ft | 379 kts | 298° |
| 2026-04-28 07:03 | 55.47453 | 81.09488 | 29624 ft | 388 kts | 291° |
| 2026-04-28 07:03 | 55.48090 | 81.04856 | 30020 ft | 390 kts | 291° |
| 2026-04-28 07:03 | 55.48732 | 81.00203 | 30393 ft | 392 kts | 291° |
| 2026-04-28 07:04 | 55.49377 | 80.95526 | 30712 ft | 393 kts | 291° |
| 2026-04-28 07:04 | 55.50025 | 80.90826 | 30994 ft | 395 kts | 291° |
| 2026-04-28 07:04 | 55.50677 | 80.86100 | 31274 ft | 397 kts | 291° |
| 2026-04-28 07:04 | 55.51327 | 80.81347 | 31540 ft | 400 kts | 290° |
| 2026-04-28 07:05 | 55.51978 | 80.76567 | 31809 ft | 402 kts | 290° |
| 2026-04-28 07:05 | 55.52628 | 80.71766 | 32144 ft | 402 kts | 290° |
| 2026-04-28 07:05 | 55.53273 | 80.66973 | 32540 ft | 401 kts | 290° |
| 2026-04-28 07:05 | 55.53914 | 80.62189 | 32919 ft | 400 kts | 290° |
| 2026-04-28 07:06 | 55.54556 | 80.57412 | 33283 ft | 400 kts | 290° |
| 2026-04-28 07:06 | 55.55197 | 80.52652 | 33655 ft | 399 kts | 290° |
| 2026-04-28 07:06 | 55.55834 | 80.47881 | 34023 ft | 399 kts | 290° |
| 2026-04-28 07:06 | 55.56467 | 80.43112 | 34385 ft | 399 kts | 290° |
| 2026-04-28 07:07 | 55.57097 | 80.38343 | 34683 ft | 399 kts | 289° |
| 2026-04-28 07:07 | 55.57739 | 80.33495 | 34951 ft | 399 kts | 289° |
| 2026-04-28 07:07 | 55.58373 | 80.28724 | 35191 ft | 400 kts | 289° |
| 2026-04-28 07:07 | 55.59009 | 80.23929 | 35432 ft | 401 kts | 289° |
| 2026-04-28 07:08 | 55.59641 | 80.19122 | 35675 ft | 402 kts | 289° |
| 2026-04-28 07:08 | 55.60271 | 80.14302 | 35890 ft | 403 kts | 288° |
| 2026-04-28 07:08 | 55.60900 | 80.09472 | 36134 ft | 403 kts | 288° |
| 2026-04-28 07:08 | 55.61523 | 80.04629 | 36333 ft | 404 kts | 288° |
| 2026-04-28 07:09 | 55.62143 | 79.99784 | 36397 ft | 402 kts | 288° |
| 2026-04-28 07:09 | 55.62931 | 79.90001 | 36407 ft | 408 kts | 274° |
| 2026-04-28 07:09 | 55.62582 | 79.84972 | 36406 ft | 417 kts | 263° |
| 2026-04-28 07:10 | 55.61791 | 79.80012 | 36404 ft | 420 kts | 260° |
| 2026-04-28 07:10 | 55.60123 | 79.70107 | 36419 ft | 420 kts | 260° |
| 2026-04-28 07:11 | 55.58451 | 79.60218 | 36397 ft | 419 kts | 260° |
| 2026-04-28 07:11 | 55.56764 | 79.50211 | 36403 ft | 431 kts | 260° |
| 2026-04-28 07:12 | 55.55022 | 79.39926 | 36405 ft | 441 kts | 259° |
| 2026-04-28 07:12 | 55.53237 | 79.29521 | 36407 ft | 443 kts | 259° |
| 2026-04-28 07:13 | 55.51428 | 79.19113 | 36405 ft | 444 kts | 259° |
| 2026-04-28 07:13 | 55.49620 | 79.08709 | 36406 ft | 443 kts | 259° |
| 2026-04-28 07:14 | 55.47802 | 78.98238 | 36404 ft | 444 kts | 259° |
| 2026-04-28 07:14 | 55.45987 | 78.87843 | 36401 ft | 444 kts | 259° |
| 2026-04-28 07:15 | 55.44159 | 78.77473 | 36398 ft | 444 kts | 258° |
| 2026-04-28 07:15 | 55.42314 | 78.67107 | 36400 ft | 443 kts | 258° |
| 2026-04-28 07:16 | 55.40468 | 78.56752 | 36400 ft | 443 kts | 258° |
| 2026-04-28 07:16 | 55.38612 | 78.46408 | 36397 ft | 443 kts | 258° |
| 2026-04-28 07:17 | 55.36743 | 78.36074 | 36395 ft | 443 kts | 258° |
| 2026-04-28 07:17 | 55.35423 | 78.25622 | 36399 ft | 434 kts | 270° |
| 2026-04-28 07:18 | 55.34827 | 78.15059 | 36400 ft | 435 kts | 269° |
| 2026-04-28 07:18 | 55.34214 | 78.04489 | 36401 ft | 435 kts | 269° |
| 2026-04-28 07:19 | 55.33581 | 77.93912 | 36405 ft | 436 kts | 269° |
| 2026-04-28 07:19 | 55.32931 | 77.83259 | 36405 ft | 436 kts | 269° |
| 2026-04-28 07:20 | 55.32284 | 77.72671 | 36411 ft | 436 kts | 269° |
| 2026-04-28 07:20 | 55.31622 | 77.62095 | 36412 ft | 436 kts | 268° |
| 2026-04-28 07:21 | 55.30956 | 77.51510 | 36406 ft | 436 kts | 268° |
| 2026-04-28 07:21 | 55.30288 | 77.40929 | 36414 ft | 436 kts | 268° |
| 2026-04-28 07:22 | 55.29251 | 77.25055 | 36415 ft | 437 kts | 268° |
| 2026-04-28 07:22 | 55.28549 | 77.14469 | 36402 ft | 437 kts | 268° |
| 2026-04-28 07:23 | 55.27837 | 77.03891 | 36412 ft | 436 kts | 268° |
| 2026-04-28 07:23 | 55.27477 | 76.98665 | 36406 ft | 425 kts | 268° |
| 2026-04-28 07:23 | 55.27125 | 76.93587 | 36410 ft | 416 kts | 268° |
| 2026-04-28 07:24 | 55.26435 | 76.83599 | 36408 ft | 412 kts | 268° |
| 2026-04-28 07:24 | 55.25746 | 76.73641 | 36407 ft | 413 kts | 267° |
| 2026-04-28 07:25 | 55.25401 | 76.68620 | 35650 ft | 415 kts | 268° |
| 2026-04-28 07:25 | 55.25043 | 76.63526 | 34715 ft | 413 kts | 268° |
| 2026-04-28 07:25 | 55.24689 | 76.58669 | 34516 ft | 393 kts | 268° |
| 2026-04-28 07:25 | 55.24342 | 76.53934 | 34024 ft | 390 kts | 268° |
| 2026-04-28 07:26 | 55.24000 | 76.49240 | 33549 ft | 386 kts | 268° |
| 2026-04-28 07:26 | 55.23659 | 76.44593 | 33088 ft | 383 kts | 268° |
| 2026-04-28 07:26 | 55.23322 | 76.39990 | 32632 ft | 379 kts | 268° |
| 2026-04-28 07:26 | 55.22989 | 76.35429 | 32177 ft | 376 kts | 268° |
| 2026-04-28 07:27 | 55.22656 | 76.30911 | 31739 ft | 372 kts | 267° |
| 2026-04-28 07:27 | 55.22320 | 76.26433 | 31304 ft | 369 kts | 267° |
| 2026-04-28 07:27 | 55.21984 | 76.21997 | 30882 ft | 366 kts | 267° |
| 2026-04-28 07:27 | 55.21649 | 76.17566 | 30450 ft | 368 kts | 267° |
| 2026-04-28 07:28 | 55.21312 | 76.13120 | 29994 ft | 368 kts | 266° |
| 2026-04-28 07:28 | 55.20975 | 76.08688 | 29575 ft | 366 kts | 266° |
| 2026-04-28 07:28 | 55.20636 | 76.04281 | 29171 ft | 364 kts | 266° |
| 2026-04-28 07:28 | 55.20301 | 75.99901 | 28773 ft | 362 kts | 266° |
| 2026-04-28 07:29 | 55.19972 | 75.95560 | 28375 ft | 359 kts | 266° |
| 2026-04-28 07:29 | 55.19642 | 75.91229 | 27972 ft | 357 kts | 266° |
| 2026-04-28 07:29 | 55.19310 | 75.86946 | 27569 ft | 355 kts | 266° |
| 2026-04-28 07:29 | 55.18976 | 75.82672 | 27154 ft | 353 kts | 265° |
| 2026-04-28 07:30 | 55.18642 | 75.78446 | 26752 ft | 350 kts | 265° |
| 2026-04-28 07:30 | 55.18307 | 75.74239 | 26344 ft | 348 kts | 265° |
| 2026-04-28 07:30 | 55.17969 | 75.70057 | 25918 ft | 346 kts | 265° |
| 2026-04-28 07:30 | 55.17632 | 75.65898 | 25498 ft | 344 kts | 265° |
| 2026-04-28 07:31 | 55.17408 | 75.63097 | 25188 ft | 343 kts | 265° |
| 2026-04-28 07:31 | 55.17085 | 75.58968 | 24726 ft | 342 kts | 265° |
| 2026-04-28 07:31 | 55.16767 | 75.54858 | 24273 ft | 340 kts | 264° |
| 2026-04-28 07:31 | 55.16447 | 75.50760 | 23783 ft | 340 kts | 264° |
| 2026-04-28 07:32 | 55.16125 | 75.46677 | 23300 ft | 338 kts | 264° |
| 2026-04-28 07:32 | 55.15802 | 75.42632 | 22856 ft | 335 kts | 264° |
| 2026-04-28 07:32 | 55.15476 | 75.38599 | 22418 ft | 333 kts | 264° |
| 2026-04-28 07:32 | 55.15152 | 75.34600 | 21976 ft | 331 kts | 263° |
| 2026-04-28 07:33 | 55.14829 | 75.30625 | 21530 ft | 329 kts | 263° |
| 2026-04-28 07:33 | 55.14506 | 75.26682 | 21115 ft | 327 kts | 263° |
| 2026-04-28 07:33 | 55.14184 | 75.22742 | 20691 ft | 326 kts | 263° |
| 2026-04-28 07:33 | 55.13865 | 75.18839 | 20267 ft | 324 kts | 263° |
| 2026-04-28 07:34 | 55.13545 | 75.14943 | 19850 ft | 323 kts | 263° |
| 2026-04-28 07:34 | 55.13228 | 75.11059 | 19428 ft | 323 kts | 262° |
| 2026-04-28 07:34 | 55.12909 | 75.07182 | 19013 ft | 322 kts | 262° |
| 2026-04-28 07:34 | 55.12588 | 75.03310 | 18582 ft | 322 kts | 262° |
| 2026-04-28 07:35 | 55.12260 | 74.99392 | 18135 ft | 321 kts | 262° |
| 2026-04-28 07:35 | 55.11938 | 74.95576 | 17727 ft | 313 kts | 262° |
| 2026-04-28 07:35 | 55.11619 | 74.91831 | 17333 ft | 310 kts | 261° |
| 2026-04-28 07:35 | 55.11300 | 74.88115 | 16946 ft | 308 kts | 261° |
| 2026-04-28 07:36 | 55.10985 | 74.84417 | 16561 ft | 307 kts | 261° |
| 2026-04-28 07:36 | 55.10671 | 74.80736 | 16180 ft | 306 kts | 261° |
| 2026-04-28 07:36 | 55.10356 | 74.77071 | 15808 ft | 305 kts | 261° |
| 2026-04-28 07:36 | 55.10043 | 74.73420 | 15430 ft | 303 kts | 261° |
| 2026-04-28 07:37 | 55.09732 | 74.69787 | 15056 ft | 302 kts | 261° |
| 2026-04-28 07:37 | 55.09421 | 74.66161 | 14691 ft | 303 kts | 261° |
| 2026-04-28 07:37 | 55.09107 | 74.62520 | 14312 ft | 304 kts | 261° |
| 2026-04-28 07:37 | 55.08792 | 74.58886 | 13898 ft | 301 kts | 260° |
| 2026-04-28 07:38 | 55.08478 | 74.55297 | 13526 ft | 297 kts | 260° |
| 2026-04-28 07:38 | 55.08165 | 74.51756 | 13145 ft | 295 kts | 260° |
| 2026-04-28 07:38 | 55.07850 | 74.48221 | 12771 ft | 293 kts | 260° |
| 2026-04-28 07:38 | 55.07541 | 74.44721 | 12394 ft | 292 kts | 259° |
| 2026-04-28 07:39 | 55.07234 | 74.41231 | 12012 ft | 290 kts | 259° |
| 2026-04-28 07:39 | 55.06926 | 74.37764 | 11633 ft | 288 kts | 259° |
| 2026-04-28 07:39 | 55.06617 | 74.34319 | 11256 ft | 287 kts | 259° |
| 2026-04-28 07:39 | 55.06308 | 74.30891 | 10868 ft | 285 kts | 259° |
| 2026-04-28 07:40 | 55.06001 | 74.27487 | 10494 ft | 283 kts | 258° |
| 2026-04-28 07:40 | 55.05696 | 74.24107 | 10086 ft | 281 kts | 258° |
| 2026-04-28 07:40 | 55.05387 | 74.20704 | 9675 ft | 280 kts | 258° |
| 2026-04-28 07:40 | 55.05080 | 74.17362 | 9285 ft | 278 kts | 258° |
| 2026-04-28 07:41 | 55.04776 | 74.14038 | 8881 ft | 277 kts | 258° |
| 2026-04-28 07:41 | 55.04474 | 74.10731 | 8483 ft | 276 kts | 259° |
| 2026-04-28 07:41 | 55.04176 | 74.07441 | 8067 ft | 274 kts | 259° |
| 2026-04-28 07:41 | 55.03948 | 74.04152 | 7656 ft | 273 kts | 262° |
| 2026-04-28 07:42 | 55.03785 | 74.00866 | 7240 ft | 271 kts | 263° |
| 2026-04-28 07:42 | 55.03643 | 73.97603 | 6821 ft | 269 kts | 263° |
| 2026-04-28 07:42 | 55.03503 | 73.94344 | 6375 ft | 268 kts | 263° |
| 2026-04-28 07:42 | 55.03359 | 73.91125 | 5946 ft | 266 kts | 263° |
| 2026-04-28 07:43 | 55.03207 | 73.87917 | 5524 ft | 265 kts | 263° |
| 2026-04-28 07:43 | 55.03050 | 73.84727 | 5089 ft | 263 kts | 263° |
| 2026-04-28 07:43 | 55.02892 | 73.81543 | 4380 ft | 263 kts | 263° |
| 2026-04-28 07:43 | 55.02795 | 73.78411 | 3984 ft | 251 kts | 263° |
| 2026-04-28 07:44 | 55.02561 | 73.75560 | 3924 ft | 227 kts | 256° |
| 2026-04-28 07:44 | 55.02231 | 73.72961 | 3857 ft | 217 kts | 254° |
| 2026-04-28 07:44 | 55.01895 | 73.70410 | 3773 ft | 216 kts | 254° |
| 2026-04-28 07:44 | 55.01562 | 73.67865 | 3679 ft | 215 kts | 254° |
| 2026-04-28 07:45 | 55.01231 | 73.65320 | 3589 ft | 214 kts | 255° |
| 2026-04-28 07:45 | 55.00910 | 73.62849 | 3504 ft | 206 kts | 253° |
| 2026-04-28 07:45 | 55.00595 | 73.60438 | 3420 ft | 203 kts | 254° |
| 2026-04-28 07:45 | 55.00277 | 73.58012 | 3229 ft | 208 kts | 253° |
| 2026-04-28 07:46 | 54.99957 | 73.55568 | 2984 ft | 206 kts | 254° |
| 2026-04-28 07:46 | 54.99641 | 73.53149 | 2699 ft | 202 kts | 254° |
| 2026-04-28 07:46 | 54.99329 | 73.50762 | 2441 ft | 195 kts | 254° |
| 2026-04-28 07:46 | 54.99036 | 73.48541 | 2186 ft | 186 kts | 256° |
| 2026-04-28 07:47 | 54.98749 | 73.46369 | 1916 ft | 180 kts | 254° |
| 2026-04-28 07:47 | 54.98475 | 73.44290 | 1673 ft | 172 kts | 254° |
| 2026-04-28 07:47 | 54.98216 | 73.42329 | 1456 ft | 163 kts | 252° |
| 2026-04-28 07:47 | 54.97966 | 73.40446 | 1223 ft | 156 kts | 253° |
| 2026-04-28 07:48 | 54.97726 | 73.38633 | 1014 ft | 151 kts | 253° |
| 2026-04-28 07:48 | 54.97493 | 73.36880 | 783 ft | 145 kts | 255° |
| 2026-04-28 07:48 | 54.97266 | 73.35175 | 597 ft | 144 kts | 255° |
| 2026-04-28 07:48 | 54.97048 | 73.33487 | 406 ft | 143 kts | 254° |
| 2026-04-28 07:49 | 54.96825 | 73.31835 | 314 ft | 133 kts | 254° |
| 2026-04-28 07:49 | 54.96642 | 73.30490 | 313 ft | 90 kts | 257° |
| 2026-04-28 07:49 | 54.96539 | 73.29724 | 318 ft | 43 kts | 256° |
| 2026-04-28 07:49 | 54.96480 | 73.29277 | 320 ft | 20 kts | 257° |
| 2026-04-28 07:50 | 54.96419 | 73.29153 | 321 ft | 14 kts | 173° |
| 2026-04-28 07:50 | 54.96298 | 73.29201 | 321 ft | 22 kts | 166° |
| 2026-04-28 07:50 | 54.96136 | 73.29266 | 321 ft | 13 kts | 166° |
| 2026-04-28 07:50 | 54.96086 | 73.29396 | 321 ft | 18 kts | 70° |
| 2026-04-28 07:51 | 54.96119 | 73.29653 | 318 ft | 26 kts | 77° |
| 2026-04-28 07:51 | 54.96163 | 73.29993 | 317 ft | 25 kts | 77° |
| 2026-04-28 07:51 | 54.96155 | 73.30212 | 316 ft | 18 kts | 142° |
| 2026-04-28 07:51 | 54.96033 | 73.30376 | 316 ft | 26 kts | 141° |
| 2026-04-28 07:52 | 54.95874 | 73.30596 | 316 ft | 32 kts | 141° |
| 2026-04-28 07:52 | 54.95703 | 73.30838 | 315 ft | 16 kts | 139° |
| 2026-04-28 07:52 | 54.95692 | 73.31050 | 313 ft | 23 kts | 55° |
| 2026-04-28 07:52 | 54.95823 | 73.31290 | 312 ft | 31 kts | 46° |
| 2026-04-28 07:53 | 54.95991 | 73.31594 | 310 ft | 38 kts | 46° |
| 2026-04-28 07:53 | 54.96143 | 73.31867 | 309 ft | 21 kts | 46° |
| 2026-04-28 07:53 | 54.96239 | 73.31838 | 309 ft | 19 kts | 320° |
| 2026-04-28 07:53 | 54.96300 | 73.31834 | 310 ft | 4 kts | 90° |
| 2026-04-28 07:54 | 54.96281 | 73.31881 | 308 ft | 7 kts | 135° |
| 2026-04-28 07:54 | 54.96266 | 73.31905 | 308 ft | 0 kts | 136° |